Time;durP1;ratioP1;P1;durP2;ratioP2;P2;SDS_P1;SDS_P2;PMS_P1;PMS_P2;Temp;Humidity;BMP_temperature;BMP_pressure;BME280_temperature;BME280_humidity;BME280_pressure;Samples;Min_cycle;Max_cycle;Signal;HPM_P1;HPM_P2
2022/06/08 00:00:28;;;;;;;26.88;14.45;;;12.10;99.90;;;;;;5094840;28;20029;-87
2022/06/08 00:03:07;;;;;;;22.52;13.10;;;12.10;99.90;;;;;;5094443;28;20028;-87
2022/06/08 00:05:32;;;;;;;25.25;13.85;;;12.10;99.90;;;;;;5093824;28;20028;-87
2022/06/08 00:07:58;;;;;;;26.50;13.30;;;12.20;99.90;;;;;;5077305;28;20158;-87
2022/06/08 00:10:24;;;;;;;23.13;14.07;;;12.20;99.90;;;;;;5077206;28;20111;-87
2022/06/08 00:12:51;;;;;;;23.73;13.10;;;12.10;99.90;;;;;;5077101;28;20138;-87
2022/06/08 00:15:16;;;;;;;24.58;14.63;;;12.00;99.90;;;;;;5093944;28;20112;-87
2022/06/08 00:18:43;;;;;;;27.77;14.07;;;12.20;99.90;;;;;;5077044;28;20032;-87
2022/06/08 00:21:12;;;;;;;26.08;12.38;;;12.20;99.90;;;;;;5077040;28;20513;-86
2022/06/08 00:23:38;;;;;;;23.35;12.98;;;12.10;99.90;;;;;;5076951;28;20111;-87
2022/06/08 00:26:05;;;;;;;26.80;14.18;;;12.00;99.90;;;;;;5076670;28;20131;-88
2022/06/08 00:28:31;;;;;;;26.10;13.30;;;12.00;99.90;;;;;;5076306;28;20043;-87
2022/06/08 00:30:58;;;;;;;20.63;11.60;;;12.00;99.90;;;;;;5076688;28;20043;-87
2022/06/08 00:33:36;;;;;;;20.20;12.27;;;12.00;99.90;;;;;;5076667;28;20039;-86
2022/06/08 00:36:03;;;;;;;28.27;12.45;;;12.00;99.90;;;;;;5094589;28;20032;-87
2022/06/08 00:38:28;;;;;;;26.50;12.95;;;12.00;99.90;;;;;;5076762;28;20031;-87
2022/06/08 00:41:12;;;;;;;24.85;11.93;;;12.00;99.90;;;;;;5076433;28;20028;-87
2022/06/08 00:43:38;;;;;;;26.85;12.73;;;11.90;99.90;;;;;;5076147;28;20024;-86
2022/06/08 00:46:35;;;;;;;19.20;11.55;;;11.90;99.90;;;;;;5076389;28;20402;-87
2022/06/08 00:49:11;;;;;;;19.95;12.48;;;11.80;99.90;;;;;;5076107;28;20028;-86
2022/06/08 00:51:38;;;;;;;22.50;12.88;;;11.80;99.90;;;;;;5093614;28;20028;-87
2022/06/08 00:54:07;;;;;;;25.73;13.20;;;11.80;99.90;;;;;;5076566;28;20070;-87
2022/06/08 00:56:41;;;;;;;32.10;14.77;;;11.80;99.90;;;;;;5075974;28;20047;-87
2022/06/08 00:59:08;;;;;;;26.15;13.50;;;11.80;99.90;;;;;;5076628;28;20024;-87
2022/06/08 01:01:34;;;;;;;22.73;13.02;;;11.80;99.90;;;;;;5076527;28;20142;-87
2022/06/08 01:04:13;;;;;;;27.90;14.05;;;11.80;99.90;;;;;;5075863;28;20035;-87
2022/06/08 01:06:43;;;;;;;26.83;13.77;;;11.80;99.90;;;;;;5076922;28;20502;-87
2022/06/08 01:09:35;;;;;;;24.88;14.13;;;11.80;99.90;;;;;;5092780;28;20020;-87
2022/06/08 01:12:08;;;;;;;30.55;13.73;;;11.80;99.90;;;;;;5076083;28;20035;-86
2022/06/08 01:14:36;;;;;;;22.50;13.90;;;11.80;99.90;;;;;;5076567;28;20110;-86
2022/06/08 01:17:07;;;;;;;29.40;14.00;;;11.80;99.90;;;;;;5076348;28;20032;-86
2022/06/08 01:19:39;;;;;;;27.60;12.38;;;11.70;99.90;;;;;;5076497;28;20025;-87
2022/06/08 01:26:32;;;;;;;23.58;12.48;;;11.50;99.90;;;;;;5094478;28;20042;-87
2022/06/08 01:28:58;;;;;;;25.45;13.27;;;11.40;99.90;;;;;;5076114;28;20039;-87
2022/06/08 01:31:36;;;;;;;26.42;14.40;;;11.30;99.90;;;;;;5093230;28;20021;-87
2022/06/08 01:34:23;;;;;;;24.85;13.63;;;11.20;99.90;;;;;;5075394;28;20034;-87
2022/06/08 01:37:07;;;;;;;23.83;13.65;;;11.10;99.90;;;;;;5075980;28;20028;-87
2022/06/08 01:40:10;;;;;;;28.83;14.02;;;11.00;99.90;;;;;;5076074;28;20579;-87
2022/06/08 01:43:18;;;;;;;26.15;14.35;;;10.90;99.90;;;;;;5076406;28;20784;-87
2022/06/08 01:46:06;;;;;;;30.73;14.23;;;11.00;99.90;;;;;;5075689;28;20039;-87
2022/06/08 01:48:49;;;;;;;32.30;14.63;;;11.00;99.90;;;;;;5075624;28;20036;-87
2022/06/08 01:51:24;;;;;;;22.65;14.68;;;11.00;99.90;;;;;;5059941;28;20212;-87
2022/06/08 01:54:01;;;;;;;29.73;16.15;;;10.90;99.90;;;;;;5075770;28;20077;-86
2022/06/08 01:56:46;;;;;;;31.92;16.65;;;10.90;99.90;;;;;;5091945;28;20475;-87
2022/06/08 01:59:38;;;;;;;33.88;17.20;;;10.90;99.90;;;;;;5076073;28;20028;-87
2022/06/08 02:02:18;;;;;;;33.83;18.13;;;11.00;99.90;;;;;;5092864;28;20039;-87
2022/06/08 02:04:58;;;;;;;38.80;19.97;;;10.90;99.90;;;;;;5075697;28;20024;-87
2022/06/08 02:07:56;;;;;;;54.85;23.63;;;11.20;99.90;;;;;;5075656;28;20274;-87
2022/06/08 02:10:36;;;;;;;43.75;22.42;;;11.40;99.90;;;;;;5092375;28;20119;-87
2022/06/08 02:13:15;;;;;;;51.97;26.00;;;11.40;99.90;;;;;;5075771;28;20051;-87
2022/06/08 02:15:46;;;;;;;59.33;25.58;;;11.40;99.90;;;;;;5077538;28;20043;-87
2022/06/08 02:18:30;;;;;;;51.35;25.15;;;11.50;99.90;;;;;;5083726;28;20292;-87
2022/06/08 02:21:12;;;;;;;51.45;26.17;;;11.60;99.90;;;;;;5085037;28;20032;-86
2022/06/08 02:23:59;;;;;;;61.47;29.73;;;11.50;99.90;;;;;;5080562;28;20429;-87
2022/06/08 02:26:33;;;;;;;56.28;30.67;;;11.60;99.90;;;;;;5079645;28;20032;-87
2022/06/08 02:29:06;;;;;;;61.47;30.05;;;11.60;99.90;;;;;;5079015;28;20036;-87
2022/06/08 02:31:49;;;;;;;57.05;29.17;;;11.70;99.90;;;;;;5078964;28;20046;-86
2022/06/08 02:34:39;;;;;;;61.63;27.77;;;11.80;99.90;;;;;;5078676;28;20028;-87
2022/06/08 02:37:24;;;;;;;66.75;30.27;;;11.70;99.90;;;;;;5095795;28;20467;-86
2022/06/08 02:39:58;;;;;;;61.05;28.48;;;11.70;99.90;;;;;;5078775;28;20024;-87
2022/06/08 02:42:28;;;;;;;61.72;29.08;;;11.70;99.90;;;;;;5078512;28;20036;-87
2022/06/08 02:44:58;;;;;;;61.58;31.27;;;11.70;99.90;;;;;;5078351;28;20028;-87
2022/06/08 02:51:14;;;;;;;63.58;28.92;;;11.80;99.90;;;;;;5096952;28;20126;-86
2022/06/08 02:53:52;;;;;;;62.35;29.45;;;11.80;99.90;;;;;;5078707;28;20455;-87
2022/06/08 02:56:45;;;;;;;66.85;30.35;;;11.90;99.90;;;;;;5078357;28;20031;-87
2022/06/08 02:59:21;;;;;;;66.30;28.67;;;11.90;99.90;;;;;;5078338;28;20051;-87
2022/06/08 03:01:58;;;;;;;68.72;34.05;;;11.90;99.90;;;;;;5078088;28;20505;-87
2022/06/08 03:05:03;;;;;;;78.07;37.80;;;12.00;99.90;;;;;;5078146;28;20028;-86
2022/06/08 03:07:43;;;;;;;72.82;35.78;;;12.10;99.90;;;;;;5094081;28;20038;-86
2022/06/08 03:10:13;;;;;;;68.70;35.00;;;12.10;99.90;;;;;;5077922;28;20028;-87
2022/06/08 03:12:52;;;;;;;63.60;33.13;;;12.10;99.90;;;;;;5078227;28;20035;-87
2022/06/08 03:15:23;;;;;;;64.65;33.60;;;12.20;99.90;;;;;;5094668;28;20293;-86
2022/06/08 03:17:50;;;;;;;;;;;12.30;99.90;;;;;;5078673;28;20483;-87
2022/06/08 03:20:20;;;;;;;61.78;32.08;;;12.30;99.90;;;;;;5094894;28;19912;-86
2022/06/08 03:23:12;;;;;;;67.63;32.13;;;12.30;99.90;;;;;;5077848;28;20052;-86
2022/06/08 03:26:07;;;;;;;57.95;29.83;;;12.40;99.90;;;;;;5077556;28;20024;-86
2022/06/08 03:28:33;;;;;;;51.40;27.00;;;12.40;99.90;;;;;;5076883;28;20032;-86
2022/06/08 03:31:00;;;;;;;48.47;26.27;;;12.40;99.90;;;;;;5094211;28;20090;-86
2022/06/08 03:33:25;;;;;;;46.13;24.33;;;12.40;99.90;;;;;;5076723;28;20024;-86
2022/06/08 03:35:51;;;;;;;46.95;22.83;;;12.50;99.90;;;;;;5077503;28;20080;-86
2022/06/08 03:38:20;;;;;;;40.25;21.98;;;12.50;99.90;;;;;;5077643;28;20035;-86
2022/06/08 03:40:47;;;;;;;34.10;20.13;;;12.50;99.90;;;;;;5077174;28;20066;-85
2022/06/08 03:43:16;;;;;;;36.20;20.08;;;12.60;99.90;;;;;;5077031;28;20577;-86
2022/06/08 03:45:45;;;;;;;29.85;16.83;;;12.60;99.90;;;;;;5077170;28;20028;-86
2022/06/08 03:48:12;;;;;;;30.92;16.83;;;12.60;99.90;;;;;;5077327;28;20749;-86
2022/06/08 03:50:43;;;;;;;25.77;15.32;;;12.60;99.90;;;;;;5093981;28;20012;-86
2022/06/08 03:53:17;;;;;;;26.83;15.05;;;12.60;99.90;;;;;;5076894;28;20039;-85
2022/06/08 03:55:47;;;;;;;23.42;12.75;;;12.60;99.90;;;;;;5077206;28;20028;-85
2022/06/08 03:58:13;;;;;;;24.85;12.90;;;12.60;99.90;;;;;;5094017;28;20127;-86
2022/06/08 04:00:41;;;;;;;23.92;12.07;;;12.60;99.90;;;;;;5077238;28;20115;-86
2022/06/08 04:03:12;;;;;;;17.42;11.50;;;12.60;99.90;;;;;;5093259;28;20020;-86
2022/06/08 04:05:38;;;;;;;31.38;12.60;;;12.60;99.90;;;;;;5076519;28;20056;-85
2022/06/08 04:08:09;;;;;;;28.63;11.15;;;12.60;99.90;;;;;;5077109;28;20036;-86
2022/06/08 04:10:42;;;;;;;18.85;10.30;;;12.60;99.90;;;;;;5077463;28;20064;-85
2022/06/08 04:13:09;;;;;;;16.95;9.73;;;12.60;99.90;;;;;;5076506;28;20024;-86
2022/06/08 04:15:44;;;;;;;16.73;9.98;;;12.60;99.90;;;;;;5076377;28;20057;-86
2022/06/08 04:18:21;;;;;;;14.60;9.57;;;12.70;99.90;;;;;;5077258;28;20479;-86
2022/06/08 04:20:55;;;;;;;16.83;8.70;;;12.60;99.90;;;;;;5077297;28;20027;-86
2022/06/08 04:23:23;;;;;;;11.77;8.65;;;12.60;99.90;;;;;;5093099;28;20153;-86
2022/06/08 04:25:52;;;;;;;12.55;8.38;;;12.70;99.90;;;;;;5076649;28;20020;-86
2022/06/08 04:28:19;;;;;;;13.77;8.15;;;12.70;99.90;;;;;;5093084;28;20078;-86
2022/06/08 04:30:48;;;;;;;14.02;8.02;;;12.70;99.90;;;;;;5077290;28;20044;-85
2022/06/08 04:33:15;;;;;;;14.23;7.20;;;12.70;99.90;;;;;;5076230;28;20392;-85
2022/06/08 04:35:42;;;;;;;15.55;7.43;;;12.80;99.90;;;;;;5076285;28;20031;-85
2022/06/08 04:38:09;;;;;;;16.27;7.03;;;12.80;99.90;;;;;;5075660;28;20032;-85
2022/06/08 04:40:38;;;;;;;13.35;7.30;;;12.80;99.90;;;;;;5075764;28;20090;-86
2022/06/08 04:43:05;;;;;;;14.85;6.60;;;12.80;99.90;;;;;;5076040;28;20036;-85
2022/06/08 04:45:35;;;;;;;8.75;5.28;;;12.80;99.90;;;;;;5075819;28;20119;-85
2022/06/08 04:48:02;;;;;;;12.93;6.40;;;12.80;99.90;;;;;;5075746;28;20031;-86
2022/06/08 04:50:30;;;;;;;13.00;6.05;;;12.80;99.90;;;;;;5075283;28;20084;-85
2022/06/08 04:53:02;;;;;;;15.02;6.28;;;12.70;99.90;;;;;;5075279;28;20551;-85
2022/06/08 04:55:30;;;;;;;11.13;6.00;;;12.70;99.90;;;;;;5075910;28;20028;-85
2022/06/08 04:57:56;;;;;;;13.57;5.47;;;12.70;99.90;;;;;;5075604;28;20593;-85
2022/06/08 05:00:23;;;;;;;11.00;5.50;;;12.60;99.90;;;;;;5075514;28;20749;-85
2022/06/08 05:02:52;;;;;;;10.55;5.35;;;12.50;99.90;;;;;;5092250;28;20379;-85
2022/06/08 05:05:37;;;;;;;14.38;7.70;;;12.50;99.90;;;;;;5092103;28;20055;-85
2022/06/08 05:08:08;;;;;;;9.93;5.70;;;12.50;99.90;;;;;;5092322;28;20035;-85
2022/06/08 05:10:38;;;;;;;9.27;5.82;;;12.40;99.90;;;;;;5075880;28;20028;-85
2022/06/08 05:13:08;;;;;;;26.63;6.40;;;12.30;99.90;;;;;;5075682;28;20031;-85
2022/06/08 05:15:37;;;;;;;14.70;5.85;;;12.30;99.90;;;;;;5092344;28;20115;-86
2022/06/08 05:18:05;;;;;;;10.90;6.20;;;12.30;99.90;;;;;;5075411;28;20047;-86
2022/06/08 05:20:33;;;;;;;16.40;6.93;;;12.30;99.90;;;;;;5075711;28;20030;-85
2022/06/08 05:23:00;;;;;;;12.95;6.40;;;12.30;99.90;;;;;;5075423;28;20032;-86
2022/06/08 05:25:30;;;;;;;10.75;6.25;;;12.40;99.90;;;;;;5074784;28;20028;-85
2022/06/08 05:27:58;;;;;;;18.00;6.47;;;12.50;99.90;;;;;;5075363;28;20119;-86
2022/06/08 05:30:26;;;;;;;12.50;5.55;;;12.50;99.90;;;;;;5092057;28;20387;-85
2022/06/08 05:32:54;;;;;;;12.30;5.80;;;12.60;99.90;;;;;;5075463;28;20032;-85
2022/06/08 05:35:23;;;;;;;12.68;6.35;;;12.60;99.90;;;;;;5075291;28;20020;-86
2022/06/08 05:37:50;;;;;;;13.60;5.35;;;12.70;99.90;;;;;;5074818;28;20028;-85
2022/06/08 05:40:20;;;;;;;14.80;4.95;;;12.80;99.90;;;;;;5075680;28;20020;-85
2022/06/08 05:42:46;;;;;;;9.02;4.65;;;12.90;99.90;;;;;;5075070;28;20035;-86
2022/06/08 05:45:21;;;;;;;12.85;6.22;;;13.00;99.90;;;;;;5074583;28;20024;-84
2022/06/08 05:47:49;;;;;;;8.73;3.97;;;13.20;99.90;;;;;;5075595;28;20028;-86
2022/06/08 05:50:35;;;;;;;8.23;4.05;;;13.60;99.90;;;;;;5075172;28;20114;-86
2022/06/08 05:53:03;;;;;;;8.30;3.72;;;13.90;99.90;;;;;;5075315;28;20059;-85
2022/06/08 05:55:29;;;;;;;8.45;3.95;;;14.20;99.90;;;;;;5091993;28;20421;-85
2022/06/08 05:57:56;;;;;;;4.60;2.75;;;14.50;99.90;;;;;;5074923;28;20111;-86
2022/06/08 06:00:28;;;;;;;8.77;3.40;;;14.80;99.90;;;;;;5075457;28;20062;-85
2022/06/08 06:02:54;;;;;;;10.80;3.45;;;14.80;99.90;;;;;;5074218;28;20114;-85
2022/06/08 06:05:24;;;;;;;5.68;3.22;;;14.70;99.90;;;;;;5074305;28;20437;-85
2022/06/08 06:07:50;;;;;;;8.52;3.15;;;14.60;99.90;;;;;;5091787;28;20439;-85
2022/06/08 06:14:16;;;;;;;8.38;4.25;;;14.40;99.90;;;;;;5092331;28;20057;-84
2022/06/08 06:16:45;;;;;;;9.63;3.92;;;14.60;99.90;;;;;;5074733;28;20507;-85
2022/06/08 06:19:13;;;;;;;9.32;3.50;;;14.90;99.90;;;;;;5074769;28;20528;-84
2022/06/08 06:21:53;;;;;;;8.88;3.50;;;15.40;99.90;;;;;;5076286;28;20400;-85
2022/06/08 06:24:28;;;;;;;8.32;2.92;;;15.90;99.90;;;;;;5090730;28;20036;-85
2022/06/08 06:27:06;;;;;;;6.57;3.08;;;16.40;99.90;;;;;;5091573;28;20036;-85
2022/06/08 06:29:52;;;;;;;6.85;3.08;;;16.70;99.90;;;;;;5090985;28;20042;-85
2022/06/08 06:32:40;;;;;;;12.23;2.90;;;17.00;99.90;;;;;;5060539;28;20173;-85
2022/06/08 06:35:11;;;;;;;9.48;2.90;;;17.00;99.90;;;;;;5074031;28;20067;-85
2022/06/08 06:37:37;;;;;;;4.57;2.60;;;17.00;99.90;;;;;;5074531;28;20033;-85
2022/06/08 06:43:52;;;;;;;7.45;2.92;;;16.90;99.90;;;;;;5092479;28;20125;-86
2022/06/08 06:46:30;;;;;;;6.38;3.20;;;17.10;99.90;;;;;;5090152;28;20032;-85
2022/06/08 06:49:09;;;;;;;5.28;2.65;;;17.30;99.90;;;;;;5076151;28;20039;-85
2022/06/08 06:51:35;;;;;;;6.63;2.95;;;17.40;99.90;;;;;;5090783;28;20039;-85
2022/06/08 06:54:03;;;;;;;5.00;2.95;;;17.50;99.90;;;;;;5090988;28;20027;-84
2022/06/08 06:56:29;;;;;;;7.93;3.60;;;17.40;99.90;;;;;;5074350;28;20032;-84
2022/06/08 06:59:02;;;;;;;5.60;3.17;;;17.60;99.90;;;;;;5075109;28;20020;-85
2022/06/08 07:01:30;;;;;;;8.13;3.10;;;17.90;99.90;;;;;;5091031;28;20071;-85
2022/06/08 07:03:57;;;;;;;4.90;2.63;;;17.80;99.90;;;;;;5077431;28;20024;-85
2022/06/08 07:06:23;;;;;;;9.55;2.72;;;17.90;99.90;;;;;;5077904;28;20031;-85
2022/06/08 07:08:50;;;;;;;6.25;2.80;;;18.10;99.90;;;;;;5077683;28;20106;-85
2022/06/08 07:11:37;;;;;;;7.18;2.88;;;18.20;99.90;;;;;;5077493;28;20028;-85
2022/06/08 07:14:19;;;;;;;12.27;3.13;;;18.30;99.90;;;;;;5078858;28;20464;-85
2022/06/08 07:16:51;;;;;;;10.32;3.60;;;18.40;99.90;;;;;;5077556;28;20093;-86
2022/06/08 07:19:20;;;;;;;;;;;18.40;99.90;;;;;;5078187;28;20024;-85
2022/06/08 07:21:53;;;;;;;5.40;2.80;;;18.50;99.90;;;;;;5093466;28;20386;-85
2022/06/08 07:24:30;;;;;;;3.92;2.22;;;18.70;99.90;;;;;;5095520;28;20077;-85
2022/06/08 07:26:56;;;;;;;7.18;2.70;;;18.90;99.90;;;;;;5077498;28;20475;-85
2022/06/08 07:29:22;;;;;;;13.48;3.60;;;19.10;99.90;;;;;;5077454;28;20039;-85
2022/06/08 07:31:54;;;;;;;7.82;3.15;;;19.10;99.90;;;;;;5077498;28;20387;-85
2022/06/08 07:34:20;;;;;;;4.63;2.83;;;19.00;99.90;;;;;;5093506;28;20028;-85
2022/06/08 07:36:46;;;;;;;7.93;2.90;;;18.70;99.90;;;;;;5095099;28;20688;-85
2022/06/08 07:39:15;;;;;;;13.90;3.28;;;18.50;99.90;;;;;;5077048;28;20028;-82
2022/06/08 07:41:42;;;;;;;7.75;3.10;;;18.50;99.90;;;;;;5094252;28;20032;-83
2022/06/08 07:44:08;;;;;;;10.05;3.80;;;18.10;99.90;;;;;;5077093;28;20025;-84
2022/06/08 07:46:34;;;;;;;8.30;2.72;;;17.60;99.90;;;;;;5077242;28;20139;-85
2022/06/08 07:51:44;;;;;;;10.48;3.53;;;17.20;99.90;;;;;;5095326;28;20062;-84
2022/06/08 07:54:10;;;;;;;15.18;3.95;;;17.20;99.90;;;;;;5076740;28;20115;-84
2022/06/08 07:56:36;;;;;;;7.18;3.13;;;17.20;99.90;;;;;;5093798;28;20032;-84
2022/06/08 07:59:03;;;;;;;6.93;3.10;;;18.20;99.90;;;;;;5093554;28;20079;-84
2022/06/08 08:01:29;;;;;;;7.85;2.67;;;20.10;99.90;;;;;;5076542;28;20032;-84
2022/06/08 08:03:55;;;;;;;5.50;2.60;;;21.70;99.90;;;;;;5076504;28;20490;-84
2022/06/08 08:06:21;;;;;;;5.45;2.10;;;23.20;99.90;;;;;;5076434;28;20126;-85
2022/06/08 08:08:47;;;;;;;10.00;1.98;;;24.20;99.90;;;;;;5076700;28;20028;-84
2022/06/08 08:11:13;;;;;;;6.40;2.50;;;25.00;99.90;;;;;;5076593;28;20031;-85
2022/06/08 08:13:38;;;;;;;4.80;2.20;;;25.30;99.90;;;;;;5076244;28;20039;-85
2022/06/08 08:16:05;;;;;;;8.85;1.95;;;25.60;99.90;;;;;;5076626;28;20032;-85
2022/06/08 08:18:31;;;;;;;4.70;1.77;;;25.50;99.90;;;;;;5076438;28;20031;-84
2022/06/08 08:20:57;;;;;;;7.03;1.42;;;25.20;99.90;;;;;;5076103;28;20512;-84
2022/06/08 08:23:23;;;;;;;7.43;2.03;;;24.70;99.90;;;;;;5092987;28;20029;-84
2022/06/08 08:25:49;;;;;;;6.45;1.92;;;24.80;99.90;;;;;;5076155;28;20024;-85
2022/06/08 08:28:15;;;;;;;3.85;1.58;;;25.00;99.90;;;;;;5076401;28;20123;-84
2022/06/08 08:30:40;;;;;;;10.95;1.50;;;25.60;99.90;;;;;;5093244;28;20479;-85
2022/06/08 08:33:06;;;;;;;5.85;1.85;;;26.10;99.90;;;;;;5092724;28;20032;-84
2022/06/08 08:35:32;;;;;;;5.25;1.73;;;26.90;99.90;;;;;;5092912;28;20044;-84
2022/06/08 08:38:00;;;;;;;4.55;1.60;;;27.00;99.90;;;;;;5092574;28;20830;-85
2022/06/08 08:40:44;;;;;;;4.35;1.60;;;26.80;99.90;;;;;;5075925;28;20077;-84
2022/06/08 08:43:14;;;;;;;6.32;1.50;;;25.90;99.90;;;;;;5092455;28;20020;-84
2022/06/08 08:45:51;;;;;;;5.28;1.20;;;26.50;99.90;;;;;;5092459;28;20612;-84
2022/06/08 08:48:30;;;;;;;5.95;1.70;;;26.30;99.90;;;;;;5075959;28;20541;-84
2022/06/08 08:51:16;;;;;;;5.65;1.52;;;25.50;99.90;;;;;;5075673;28;20032;-85
2022/06/08 08:54:03;;;;;;;5.95;1.50;;;26.00;99.90;;;;;;5075252;28;20105;-84
2022/06/08 08:56:39;;;;;;;3.50;1.40;;;26.00;99.90;;;;;;5075439;28;20126;-85
2022/06/08 08:59:17;;;;;;;4.93;1.80;;;26.70;99.90;;;;;;5093270;28;20479;-84
2022/06/08 09:01:48;;;;;;;3.88;1.45;;;27.30;99.90;;;;;;5075612;28;20119;-84
2022/06/08 09:04:31;;;;;;;5.82;1.67;;;26.80;97.50;;;;;;5091959;28;20032;-84
2022/06/08 09:07:00;;;;;;;6.72;1.48;;;26.20;99.30;;;;;;5075386;28;20506;-84
2022/06/08 09:09:32;;;;;;;4.80;1.23;;;26.00;99.90;;;;;;5074849;28;20078;-84
2022/06/08 09:11:59;;;;;;;3.20;1.38;;;25.60;99.90;;;;;;5092285;28;20127;-84
2022/06/08 09:14:43;;;;;;;3.70;1.20;;;25.10;99.90;;;;;;5091823;28;20653;-84
2022/06/08 09:17:09;;;;;;;4.45;1.30;;;25.30;98.70;;;;;;5093186;28;20059;-84
2022/06/08 09:19:43;;;;;;;7.68;1.75;;;25.60;99.50;;;;;;5091837;28;20382;-84
2022/06/08 09:22:09;;;;;;;4.28;1.15;;;25.10;99.00;;;;;;5074750;28;20024;-85
2022/06/08 09:24:41;;;;;;;6.63;1.02;;;25.30;99.20;;;;;;5074287;28;20021;-84
2022/06/08 09:27:22;;;;;;;3.30;1.23;;;26.20;98.90;;;;;;5092943;28;20040;-84
2022/06/08 09:30:08;;;;;;;4.40;1.38;;;27.20;94.90;;;;;;5074662;28;20399;-84
2022/06/08 09:32:54;;;;;;;6.07;1.23;;;26.00;94.20;;;;;;5074915;28;20040;-85
2022/06/08 09:35:36;;;;;;;2.65;1.10;;;25.30;97.20;;;;;;5091820;28;20067;-84
2022/06/08 09:38:12;;;;;;;6.32;1.30;;;24.40;98.40;;;;;;5075068;28;20032;-84
2022/06/08 09:40:54;;;;;;;3.55;1.35;;;24.50;99.90;;;;;;5074791;28;20077;-85
2022/06/08 09:44:01;;;;;;;7.07;1.23;;;25.90;98.90;;;;;;5091692;28;20391;-84
2022/06/08 09:53:16;;;;;;;3.85;1.30;;;27.30;92.20;;;;;;5091017;28;20039;-84
2022/06/08 09:56:06;;;;;;;5.53;3.22;;;28.10;90.80;;;;;;5090823;28;20063;-84
2022/06/08 09:58:56;;;;;;;2.38;1.13;;;27.80;88.20;;;;;;5074567;28;20043;-84
2022/06/08 10:01:37;;;;;;;6.88;1.30;;;26.80;89.70;;;;;;5074681;28;20418;-84
2022/06/08 10:04:31;;;;;;;4.72;1.45;;;26.00;92.10;;;;;;5073416;28;20039;-85
2022/06/08 10:07:01;;;;;;;3.53;1.45;;;27.00;92.40;;;;;;5074838;28;20441;-84
2022/06/08 10:09:58;;;;;;;7.45;1.23;;;28.10;90.00;;;;;;5092440;28;20059;-85
2022/06/08 10:12:44;;;;;;;4.45;1.13;;;28.30;89.10;;;;;;5073559;28;20441;-85
2022/06/08 10:15:37;;;;;;;3.15;1.10;;;27.70;87.90;;;;;;5073934;28;20047;-85
2022/06/08 10:18:31;;;;;;;3.03;1.15;;;27.00;89.50;;;;;;5090826;28;20039;-84
2022/06/08 10:21:16;;;;;;;3.60;1.13;;;25.40;89.50;;;;;;5091316;28;20386;-83
2022/06/08 10:23:53;;;;;;;7.22;1.65;;;24.40;92.50;;;;;;5074019;28;20028;-84
2022/06/08 10:26:31;;;;;;;9.13;1.33;;;23.80;92.90;;;;;;5074437;28;20127;-84
2022/06/08 10:28:56;;;;;;;7.90;1.35;;;23.60;92.90;;;;;;5074336;28;20115;-84
2022/06/08 10:32:06;;;;;;;3.53;1.05;;;23.30;94.00;;;;;;5073699;28;20115;-84
2022/06/08 10:34:34;;;;;;;3.47;1.23;;;23.20;93.90;;;;;;5091581;28;20038;-84
2022/06/08 10:37:22;;;;;;;5.50;1.30;;;23.30;94.00;;;;;;5074661;28;20028;-85
2022/06/08 10:39:49;;;;;;;2.38;1.13;;;23.40;94.10;;;;;;5094590;28;20020;-84
2022/06/08 10:42:46;;;;;;;4.38;1.25;;;23.70;95.80;;;;;;5095064;28;20039;-85
2022/06/08 10:45:23;;;;;;;7.93;1.50;;;24.30;95.80;;;;;;5078290;28;20035;-84
2022/06/08 10:47:58;;;;;;;6.70;1.95;;;24.80;93.50;;;;;;5078231;28;20101;-84
2022/06/08 10:50:46;;;;;;;6.55;1.55;;;23.90;93.10;;;;;;5095236;28;20035;-84
2022/06/08 10:56:23;;;;;;;5.25;1.23;;;24.20;95.80;;;;;;5094843;28;20042;-83
2022/06/08 10:58:53;;;;;;;;;;;25.00;94.50;;;;;;5078566;28;20719;-84
2022/06/08 11:01:42;;;;;;;3.72;1.38;;;25.90;92.40;;;;;;5094626;28;19946;-84
2022/06/08 11:04:31;;;;;;;5.82;1.35;;;26.10;89.00;;;;;;5063724;28;20476;-84
2022/06/08 11:07:02;;;;;;;9.25;1.20;;;25.90;90.00;;;;;;5077844;28;20044;-83
2022/06/08 11:09:33;;;;;;;5.75;1.15;;;26.10;87.80;;;;;;5095027;28;20054;-84
2022/06/08 11:12:13;;;;;;;6.28;0.95;;;26.00;86.90;;;;;;5094476;28;20048;-84
2022/06/08 11:14:48;;;;;;;5.28;1.55;;;25.20;89.20;;;;;;5095186;28;20028;-84
2022/06/08 11:17:52;;;;;;;4.13;1.20;;;25.30;91.10;;;;;;5094446;28;20035;-84
2022/06/08 11:20:20;;;;;;;4.13;1.27;;;25.10;88.60;;;;;;5094317;28;20117;-84
2022/06/08 11:22:53;;;;;;;3.25;1.20;;;24.60;91.20;;;;;;5094246;28;20024;-84
2022/06/08 11:25:34;;;;;;;3.13;1.13;;;24.40;90.40;;;;;;5094146;28;20124;-83
2022/06/08 11:28:22;;;;;;;8.75;1.70;;;24.40;88.80;;;;;;5077398;28;20042;-84
2022/06/08 11:30:50;;;;;;;3.30;1.20;;;24.20;91.30;;;;;;5095405;28;20028;-83
2022/06/08 11:33:19;;;;;;;8.18;1.60;;;24.10;91.40;;;;;;5076752;28;20031;-84
2022/06/08 11:36:08;;;;;;;5.40;1.00;;;23.90;92.60;;;;;;5094047;28;20028;-83
2022/06/08 11:38:53;;;;;;;2.85;0.98;;;23.90;92.10;;;;;;5076831;28;20032;-84
2022/06/08 11:41:25;;;;;;;3.40;1.23;;;24.10;91.90;;;;;;5093871;28;20036;-83
2022/06/08 11:43:51;;;;;;;6.05;1.25;;;24.10;90.30;;;;;;5076669;28;20043;-83
2022/06/08 11:46:34;;;;;;;4.65;1.17;;;24.10;90.60;;;;;;5076617;28;20035;-84
2022/06/08 11:49:00;;;;;;;5.72;1.20;;;24.00;89.80;;;;;;5075858;28;20775;-83
2022/06/08 11:51:39;;;;;;;6.80;1.23;;;23.70;91.40;;;;;;5093833;28;20024;-84
2022/06/08 11:54:25;;;;;;;3.15;1.20;;;24.30;90.40;;;;;;5076425;28;20028;-83
2022/06/08 11:57:01;;;;;;;5.95;1.00;;;25.30;86.00;;;;;;5076499;28;20077;-84
2022/06/08 11:59:27;;;;;;;3.40;1.30;;;25.80;89.90;;;;;;5076486;28;20020;-84
2022/06/08 12:01:59;;;;;;;3.15;1.10;;;25.40;83.10;;;;;;5094773;28;20027;-84
2022/06/08 12:04:30;;;;;;;4.95;1.27;;;24.40;85.90;;;;;;5093426;28;20059;-84
2022/06/08 12:06:58;;;;;;;1.65;1.00;;;24.00;89.60;;;;;;5093439;28;20122;-84
2022/06/08 12:09:34;;;;;;;4.10;1.23;;;24.30;89.40;;;;;;5076405;28;20047;-84
2022/06/08 12:12:14;;;;;;;5.28;1.27;;;24.80;89.20;;;;;;5094297;28;20064;-84
2022/06/08 12:14:41;;;;;;;2.05;0.95;;;25.20;89.30;;;;;;5094116;28;20058;-83
2022/06/08 12:17:32;;;;;;;3.30;1.25;;;24.50;87.30;;;;;;5093217;28;20043;-84
2022/06/08 12:19:58;;;;;;;;;;;24.20;90.00;;;;;;5093698;28;20050;-84
2022/06/08 12:22:31;;;;;;;6.25;1.90;;;24.50;91.10;;;;;;5075632;28;19908;-84
2022/06/08 12:25:09;;;;;;;5.75;1.10;;;24.80;90.40;;;;;;5075616;28;20028;-83
2022/06/08 12:27:57;;;;;;;6.32;1.15;;;25.30;90.70;;;;;;5075765;28;20032;-84
2022/06/08 12:30:30;;;;;;;5.55;1.50;;;25.10;87.50;;;;;;5092859;28;20082;-83
2022/06/08 12:33:19;;;;;;;4.35;1.10;;;25.50;89.00;;;;;;5075711;28;20046;-84
2022/06/08 12:36:06;;;;;;;2.92;1.02;;;25.70;88.00;;;;;;5092774;28;20060;-84
2022/06/08 12:38:34;;;;;;;2.95;1.55;;;26.20;86.70;;;;;;5075903;28;20038;-84
2022/06/08 12:41:09;;;;;;;4.60;1.10;;;26.70;82.90;;;;;;5092455;28;20524;-84
2022/06/08 12:43:46;;;;;;;5.03;1.40;;;26.70;83.70;;;;;;5092509;28;20032;-84
2022/06/08 12:46:21;;;;;;;2.83;0.98;;;26.40;82.00;;;;;;5093190;28;20035;-84
2022/06/08 12:48:54;;;;;;;5.13;1.15;;;26.00;83.40;;;;;;5076159;28;20024;-85
2022/06/08 12:51:29;;;;;;;6.30;1.35;;;25.70;84.10;;;;;;5092842;28;20027;-84
2022/06/08 12:53:56;;;;;;;6.93;1.35;;;25.30;83.50;;;;;;5092359;28;20050;-84
2022/06/08 12:56:22;;;;;;;3.95;1.30;;;25.40;85.30;;;;;;5075284;28;20063;-84
2022/06/08 12:58:50;;;;;;;3.28;1.27;;;25.40;86.10;;;;;;5092360;28;20039;-83
2022/06/08 13:01:18;;;;;;;3.50;1.27;;;25.00;86.00;;;;;;5092701;28;20012;-83
2022/06/08 13:03:43;;;;;;;3.38;1.15;;;24.50;86.10;;;;;;5075277;28;20562;-83
2022/06/08 13:06:10;;;;;;;4.00;1.30;;;23.70;87.30;;;;;;5092337;28;20056;-84
2022/06/08 13:08:37;;;;;;;8.25;1.33;;;23.30;89.90;;;;;;5075488;28;20150;-84
2022/06/08 13:11:06;;;;;;;4.90;1.33;;;23.20;90.30;;;;;;5092168;28;20031;-84
2022/06/08 13:13:36;;;;;;;3.67;1.15;;;23.30;91.30;;;;;;5091960;28;20039;-84
2022/06/08 13:16:11;;;;;;;6.47;1.30;;;23.80;90.60;;;;;;5091942;28;20039;-84
2022/06/08 13:18:37;;;;;;;7.20;1.73;;;24.50;90.80;;;;;;5075123;28;20043;-84
2022/06/08 13:21:06;;;;;;;9.00;1.15;;;25.20;90.40;;;;;;5074830;28;20035;-84
2022/06/08 13:23:32;;;;;;;7.88;1.30;;;25.50;87.30;;;;;;5074655;28;20058;-84
2022/06/08 13:25:59;;;;;;;7.00;1.35;;;25.80;86.40;;;;;;5091485;28;20059;-84
2022/06/08 13:28:31;;;;;;;3.55;1.30;;;26.10;87.50;;;;;;5074866;28;20024;-84
2022/06/08 13:30:59;;;;;;;4.68;1.27;;;26.20;85.70;;;;;;5074993;28;20035;-84
2022/06/08 13:36:25;;;;;;;4.57;1.27;;;25.90;86.80;;;;;;5091500;28;20043;-84
2022/06/08 13:38:56;;;;;;;2.75;1.20;;;25.70;87.60;;;;;;5091253;28;20024;-84
2022/06/08 13:41:22;;;;;;;5.40;1.80;;;25.60;85.60;;;;;;5091397;28;20062;-84
2022/06/08 13:43:48;;;;;;;4.95;1.02;;;25.30;85.20;;;;;;5091219;28;20055;-84
2022/06/08 13:46:24;;;;;;;6.55;1.30;;;24.70;86.90;;;;;;5091651;28;20455;-84